Time;durP1;ratioP1;P1;durP2;ratioP2;P2;SDS_P1;SDS_P2;PMS_P1;PMS_P2;Temp;Humidity;BMP_temperature;BMP_pressure;BME280_temperature;BME280_humidity;BME280_pressure;Samples;Min_cycle;Max_cycle;Signal;HPM_P1;HPM_P2
2022/10/12 00:01:09;;;;;;;14.43;8.90;;;8.20;99.90;;;;;;5027028;28;20095;-77
2022/10/12 00:03:36;;;;;;;14.30;8.75;;;8.10;99.90;;;;;;5024905;28;20065;-77
2022/10/12 00:06:06;;;;;;;13.48;8.85;;;8.10;99.90;;;;;;5028335;28;20045;-77
2022/10/12 00:08:32;;;;;;;12.02;8.48;;;8.10;99.90;;;;;;5019920;28;20333;-77
2022/10/12 00:10:58;;;;;;;16.25;8.77;;;8.10;99.90;;;;;;5021506;28;20052;-77
2022/10/12 00:13:24;;;;;;;13.57;8.43;;;8.10;99.90;;;;;;5024944;28;20029;-76
2022/10/12 00:15:52;;;;;;;13.45;8.60;;;8.10;99.90;;;;;;5026178;28;20050;-76
2022/10/12 00:18:18;;;;;;;14.27;8.82;;;8.00;99.90;;;;;;5006609;28;20187;-75
2022/10/12 00:20:44;;;;;;;17.83;8.85;;;8.00;99.90;;;;;;5010497;28;20379;-76
2022/10/12 00:23:13;;;;;;;16.02;9.00;;;8.10;99.90;;;;;;5018778;28;20382;-76
2022/10/12 00:25:40;;;;;;;13.05;8.32;;;8.00;99.90;;;;;;5027981;28;20053;-76
2022/10/12 00:28:09;;;;;;;15.48;9.15;;;8.00;99.90;;;;;;5026955;28;22485;-76
2022/10/12 00:30:40;;;;;;;13.13;8.05;;;8.00;99.90;;;;;;5009796;28;20041;-76
2022/10/12 00:33:06;;;;;;;13.55;7.40;;;7.90;99.90;;;;;;5007085;28;20053;-75
2022/10/12 00:35:31;;;;;;;12.10;7.93;;;7.90;99.90;;;;;;5009287;28;20045;-76
2022/10/12 00:37:57;;;;;;;12.02;7.57;;;7.80;99.90;;;;;;5027295;28;20045;-76
2022/10/12 00:40:23;;;;;;;14.48;7.85;;;7.80;99.90;;;;;;5020609;28;21932;-76
2022/10/12 00:42:48;;;;;;;11.95;7.18;;;7.80;99.90;;;;;;5024103;28;20052;-76
2022/10/12 00:45:15;;;;;;;11.88;7.22;;;7.70;99.90;;;;;;5027783;28;20045;-76
2022/10/12 00:47:49;;;;;;;12.18;6.78;;;7.70;99.90;;;;;;5024972;28;20566;-75
2022/10/12 00:50:20;;;;;;;11.38;7.10;;;7.70;99.90;;;;;;5021165;28;20041;-77
2022/10/12 00:52:49;;;;;;;16.45;7.18;;;7.70;99.90;;;;;;5025333;28;20049;-77
2022/10/12 00:55:18;;;;;;;12.95;7.35;;;7.60;99.90;;;;;;5023116;28;20041;-76
2022/10/12 00:57:46;;;;;;;15.77;8.20;;;7.60;99.90;;;;;;5022202;28;20505;-77
2022/10/12 01:00:13;;;;;;;11.90;6.60;;;7.60;99.90;;;;;;5018396;28;20116;-76
2022/10/12 01:02:41;;;;;;;11.70;7.15;;;7.60;99.90;;;;;;5032206;28;20498;-77
2022/10/12 01:05:09;;;;;;;10.07;6.55;;;7.50;99.90;;;;;;5023703;28;20476;-77
2022/10/12 01:07:34;;;;;;;12.45;7.40;;;7.60;99.90;;;;;;5027515;28;20064;-77
2022/10/12 01:10:01;;;;;;;12.15;7.50;;;7.60;99.90;;;;;;5018221;28;20477;-77
2022/10/12 01:12:27;;;;;;;11.85;6.93;;;7.60;99.90;;;;;;5022675;28;20057;-77
2022/10/12 01:14:53;;;;;;;15.85;7.57;;;7.50;99.90;;;;;;5024437;28;20037;-77
2022/10/12 01:17:23;;;;;;;11.50;7.50;;;7.60;99.90;;;;;;5026158;28;20048;-77
2022/10/12 01:20:01;;;;;;;15.80;8.00;;;7.50;99.90;;;;;;5026158;28;20167;-77
2022/10/12 01:22:33;;;;;;;12.90;7.50;;;7.50;99.90;;;;;;5019549;28;20052;-76
2022/10/12 01:25:17;;;;;;;16.75;8.00;;;7.50;99.90;;;;;;5014247;28;20540;-76
2022/10/12 01:27:53;;;;;;;12.23;7.30;;;7.50;99.90;;;;;;5024899;28;20059;-77
2022/10/12 01:30:22;;;;;;;20.90;8.57;;;7.50;99.90;;;;;;5007974;28;20511;-77
2022/10/12 01:33:19;;;;;;;17.90;9.15;;;7.50;99.90;;;;;;5023025;28;20064;-77
2022/10/12 01:36:05;;;;;;;;;;;7.60;99.90;;;;;;5017213;28;20077;-77
2022/10/12 01:39:06;;;;;;;12.25;7.93;;;7.50;99.90;;;;;;5023772;28;19960;-77
2022/10/12 01:41:38;;;;;;;10.25;7.20;;;7.50;99.90;;;;;;4995823;28;20041;-76
2022/10/12 01:44:04;;;;;;;11.32;6.95;;;7.50;99.90;;;;;;5023824;28;20037;-77
2022/10/12 01:46:29;;;;;;;12.32;6.90;;;7.50;99.90;;;;;;5007829;28;20496;-77
2022/10/12 01:49:00;;;;;;;10.18;5.97;;;7.50;99.90;;;;;;5022822;28;20038;-76
2022/10/12 01:51:36;;;;;;;9.80;5.80;;;7.50;99.90;;;;;;5000786;28;20060;-77
2022/10/12 01:54:19;;;;;;;10.23;6.20;;;7.40;99.90;;;;;;5021229;28;20404;-75
2022/10/12 01:57:16;;;;;;;12.13;6.57;;;7.30;99.90;;;;;;5021460;28;20076;-76
2022/10/12 02:00:06;;;;;;;12.25;6.70;;;7.20;99.90;;;;;;5020762;28;20050;-76
2022/10/12 02:02:53;;;;;;;11.15;6.45;;;7.20;99.90;;;;;;5017166;28;20052;-76
2022/10/12 02:05:26;;;;;;;;;;;7.20;99.90;;;;;;5024364;28;20925;-76
2022/10/12 02:08:07;;;;;;;9.80;6.28;;;7.20;99.90;;;;;;5025079;28;19917;-76
2022/10/12 02:10:39;;;;;;;8.90;6.30;;;7.20;99.90;;;;;;5020488;28;20052;-76
2022/10/12 02:13:08;;;;;;;9.10;6.32;;;7.20;99.90;;;;;;5027450;28;20033;-76
2022/10/12 02:15:38;;;;;;;11.32;6.53;;;7.20;99.90;;;;;;5006608;28;20695;-77
2022/10/12 02:18:05;;;;;;;9.93;7.00;;;7.30;99.90;;;;;;5023314;28;20049;-78
2022/10/12 02:20:33;;;;;;;13.88;7.28;;;7.20;99.90;;;;;;5023207;28;20106;-77
2022/10/12 02:23:00;;;;;;;12.85;7.03;;;7.30;99.90;;;;;;5022997;28;20045;-77
2022/10/12 02:25:26;;;;;;;;;;;7.30;99.90;;;;;;5020726;28;20029;-77
2022/10/12 02:28:02;;;;;;;13.13;7.13;;;7.30;99.90;;;;;;5027333;28;19920;-77
2022/10/12 02:30:33;;;;;;;15.07;8.10;;;7.20;99.90;;;;;;5003557;28;20064;-77
2022/10/12 02:33:07;;;;;;;16.95;8.25;;;7.30;99.90;;;;;;5022588;28;20046;-77
2022/10/12 02:35:57;;;;;;;13.95;8.35;;;7.30;99.90;;;;;;5024256;28;20116;-77
2022/10/12 02:38:37;;;;;;;16.08;9.00;;;7.30;99.90;;;;;;5019913;28;20060;-77
2022/10/12 02:41:08;;;;;;;13.60;9.13;;;7.30;99.90;;;;;;5019941;28;20042;-77
2022/10/12 02:43:47;;;;;;;14.55;8.75;;;7.30;99.90;;;;;;5024112;28;20103;-76
2022/10/12 02:46:15;;;;;;;14.00;8.40;;;7.40;99.90;;;;;;5024934;28;20156;-77
2022/10/12 02:48:40;;;;;;;;;;;7.40;99.90;;;;;;5006288;28;20068;-77
2022/10/12 02:51:08;;;;;;;16.15;8.35;;;7.30;99.90;;;;;;5020356;28;19925;-77
2022/10/12 02:53:34;;;;;;;14.73;8.27;;;7.30;99.90;;;;;;5015020;28;20084;-77
2022/10/12 02:56:04;;;;;;;17.73;8.77;;;7.30;99.90;;;;;;5005262;28;20081;-77
2022/10/12 02:58:33;;;;;;;21.25;9.43;;;7.30;99.90;;;;;;5025535;28;20128;-76
2022/10/12 03:01:01;;;;;;;13.65;7.97;;;7.30;99.90;;;;;;5028469;28;20186;-77
2022/10/12 03:03:27;;;;;;;13.63;7.72;;;7.30;99.90;;;;;;5029020;28;20128;-77
2022/10/12 03:05:53;;;;;;;17.27;8.52;;;7.30;99.90;;;;;;5030413;28;20073;-77
2022/10/12 03:08:19;;;;;;;15.60;8.38;;;7.30;99.90;;;;;;5028308;28;20041;-76
2022/10/12 03:10:45;;;;;;;14.38;8.25;;;7.30;99.90;;;;;;5026867;28;20044;-76
2022/10/12 03:13:10;;;;;;;12.85;8.00;;;7.30;99.90;;;;;;5026536;28;20038;-76
2022/10/12 03:15:36;;;;;;;12.60;8.48;;;7.30;99.90;;;;;;5008025;28;20041;-77
2022/10/12 03:18:02;;;;;;;10.85;7.43;;;7.30;99.90;;;;;;5029244;28;20607;-75
2022/10/12 03:20:27;;;;;;;15.48;8.35;;;7.20;99.90;;;;;;5003465;28;20048;-77
2022/10/12 03:22:53;;;;;;;15.95;8.50;;;7.20;99.90;;;;;;5007772;28;20464;-76
2022/10/12 03:25:18;;;;;;;12.88;8.40;;;7.20;99.90;;;;;;5027536;28;20037;-77
2022/10/12 03:27:44;;;;;;;12.05;8.05;;;7.20;99.90;;;;;;5025450;28;20069;-78
2022/10/12 03:30:11;;;;;;;15.88;8.30;;;7.20;99.90;;;;;;5024208;28;20131;-77
2022/10/12 03:32:37;;;;;;;13.85;7.78;;;7.20;99.90;;;;;;5025593;28;20050;-77
2022/10/12 03:35:03;;;;;;;14.25;7.82;;;7.10;99.90;;;;;;5024631;28;20121;-77
2022/10/12 03:37:29;;;;;;;15.30;9.00;;;7.20;99.90;;;;;;5030118;28;20042;-77
2022/10/12 03:39:55;;;;;;;13.25;7.88;;;7.10;99.90;;;;;;5023652;28;20042;-77
2022/10/12 03:42:21;;;;;;;17.73;8.77;;;7.10;99.90;;;;;;5023678;28;20460;-77
2022/10/12 03:44:46;;;;;;;15.70;8.40;;;7.10;99.90;;;;;;5021662;28;20040;-77
2022/10/12 03:47:12;;;;;;;13.60;7.88;;;7.20;99.90;;;;;;5025524;28;20041;-77
2022/10/12 03:49:37;;;;;;;12.70;7.50;;;7.10;99.90;;;;;;5008754;28;20172;-77
2022/10/12 03:52:03;;;;;;;13.95;8.25;;;7.00;99.90;;;;;;5024593;28;20057;-76
2022/10/12 03:54:29;;;;;;;12.30;7.82;;;7.10;99.90;;;;;;5027695;28;20404;-77
2022/10/12 03:56:55;;;;;;;15.25;7.30;;;7.10;99.90;;;;;;5016367;28;20053;-82
2022/10/12 03:59:21;;;;;;;15.73;7.95;;;7.10;99.90;;;;;;5024455;28;20034;-77
2022/10/12 04:01:47;;;;;;;15.75;7.88;;;7.10;99.90;;;;;;5023748;28;20051;-77
2022/10/12 04:04:12;;;;;;;14.23;7.10;;;7.00;99.90;;;;;;5021421;28;20049;-76
2022/10/12 04:06:38;;;;;;;13.32;7.50;;;7.00;99.90;;;;;;5028068;28;20088;-77
2022/10/12 04:09:04;;;;;;;12.88;7.13;;;7.00;99.90;;;;;;5028222;28;20495;-77
2022/10/12 04:11:29;;;;;;;14.45;8.35;;;6.90;99.90;;;;;;5021674;28;20047;-75
2022/10/12 04:13:55;;;;;;;15.52;8.00;;;6.90;99.90;;;;;;5027027;28;20037;-76
2022/10/12 04:16:21;;;;;;;15.77;7.72;;;6.90;99.90;;;;;;5027554;28;20060;-78
2022/10/12 04:18:46;;;;;;;17.35;7.93;;;6.90;99.90;;;;;;5025226;28;20136;-78
2022/10/12 04:21:14;;;;;;;13.93;7.70;;;6.90;99.90;;;;;;5027761;28;20080;-78
2022/10/12 04:23:40;;;;;;;15.20;7.20;;;6.90;99.90;;;;;;5023531;28;20081;-78
2022/10/12 04:26:06;;;;;;;14.25;8.07;;;6.80;99.90;;;;;;5022647;28;20131;-77
2022/10/12 04:28:32;;;;;;;15.00;8.50;;;6.80;99.90;;;;;;5024962;28;20069;-78
2022/10/12 04:30:58;;;;;;;14.38;7.80;;;6.80;99.90;;;;;;5026204;28;20050;-78
2022/10/12 04:33:24;;;;;;;16.30;8.20;;;6.80;99.90;;;;;;5027678;28;20870;-78
2022/10/12 04:35:49;;;;;;;15.30;8.68;;;6.80;99.90;;;;;;5024064;28;20046;-78
2022/10/12 04:38:15;;;;;;;17.23;8.23;;;6.80;99.90;;;;;;5024519;28;20077;-78
2022/10/12 04:40:48;;;;;;;16.23;8.02;;;6.80;99.90;;;;;;5023389;28;20080;-79
2022/10/12 04:43:14;;;;;;;15.68;8.48;;;6.90;99.90;;;;;;5023576;28;20395;-78
2022/10/12 04:45:40;;;;;;;15.05;9.15;;;6.70;99.90;;;;;;5024680;28;20053;-78
2022/10/12 04:48:05;;;;;;;15.60;9.25;;;6.70;99.90;;;;;;5020988;28;20049;-77
2022/10/12 04:50:31;;;;;;;18.70;9.77;;;6.70;99.90;;;;;;5005717;28;20130;-77
2022/10/12 04:52:56;;;;;;;17.70;10.13;;;6.70;99.90;;;;;;5026827;28;20519;-78
2022/10/12 04:55:22;;;;;;;19.63;10.82;;;6.70;99.90;;;;;;5029197;28;20029;-78
2022/10/12 04:57:48;;;;;;;21.83;10.90;;;6.70;99.90;;;;;;5028717;28;20088;-78
2022/10/12 05:00:15;;;;;;;18.02;10.30;;;6.70;99.90;;;;;;5023708;28;20153;-78
2022/10/12 05:02:41;;;;;;;17.98;10.48;;;6.70;99.90;;;;;;5022216;28;20048;-78
2022/10/12 05:05:07;;;;;;;19.20;10.88;;;6.70;99.90;;;;;;5024374;28;20041;-78
2022/10/12 05:07:33;;;;;;;22.25;11.35;;;6.70;99.90;;;;;;5019978;28;20037;-78
2022/10/12 05:09:59;;;;;;;18.05;10.93;;;6.70;99.90;;;;;;5025883;28;20080;-78
2022/10/12 05:12:24;;;;;;;18.27;10.90;;;6.70;99.90;;;;;;5019640;28;20167;-78
2022/10/12 05:14:50;;;;;;;17.40;10.70;;;6.70;99.90;;;;;;5025897;28;20025;-78
2022/10/12 05:17:16;;;;;;;16.63;10.80;;;6.70;99.90;;;;;;5024921;28;20034;-78
2022/10/12 05:19:41;;;;;;;19.92;11.40;;;6.80;99.90;;;;;;5028697;28;20392;-77
2022/10/12 05:22:07;;;;;;;19.60;10.68;;;6.70;99.90;;;;;;5003687;28;20489;-77
2022/10/12 05:24:33;;;;;;;16.95;10.10;;;6.60;99.90;;;;;;5017859;28;20042;-78
2022/10/12 05:26:58;;;;;;;19.05;11.05;;;6.60;99.90;;;;;;5010000;28;20676;-79
2022/10/12 05:29:24;;;;;;;19.10;10.45;;;6.60;99.90;;;;;;5011869;28;20170;-78
2022/10/12 05:31:49;;;;;;;17.77;9.52;;;6.60;99.90;;;;;;5009849;28;20064;-78
2022/10/12 05:34:15;;;;;;;16.83;11.02;;;6.60;99.90;;;;;;5010898;28;20381;-77
2022/10/12 05:36:41;;;;;;;17.83;10.98;;;6.60;99.90;;;;;;5025043;28;20075;-78
2022/10/12 05:39:06;;;;;;;19.70;10.52;;;6.60;99.90;;;;;;5021666;28;20388;-78
2022/10/12 05:41:32;;;;;;;18.17;10.32;;;6.60;99.90;;;;;;5007454;28;20049;-81
2022/10/12 05:43:58;;;;;;;16.90;10.40;;;6.60;99.90;;;;;;5021816;28;20068;-82
2022/10/12 05:46:23;;;;;;;15.65;9.07;;;6.60;99.90;;;;;;5024363;28;20059;-80
2022/10/12 05:48:49;;;;;;;19.63;10.93;;;6.60;99.90;;;;;;5019458;28;20302;-81
2022/10/12 05:51:14;;;;;;;17.80;9.15;;;6.60;99.90;;;;;;5023518;28;20405;-82
2022/10/12 05:53:41;;;;;;;17.98;9.55;;;6.60;99.90;;;;;;5004316;28;20124;-81
2022/10/12 05:56:06;;;;;;;12.63;8.55;;;6.50;99.90;;;;;;4994355;28;20076;-78
2022/10/12 05:58:32;;;;;;;21.30;10.05;;;6.50;99.90;;;;;;4992488;28;20456;-80
2022/10/12 06:01:07;;;;;;;13.88;8.98;;;6.40;99.90;;;;;;4987933;28;20064;-78
2022/10/12 06:03:32;;;;;;;13.68;9.80;;;6.40;99.90;;;;;;4980114;28;20056;-77
2022/10/12 06:05:58;;;;;;;15.13;9.57;;;6.40;99.90;;;;;;4987960;28;20595;-78
2022/10/12 06:08:24;;;;;;;15.68;9.30;;;6.40;99.90;;;;;;5009130;28;20080;-78
2022/10/12 06:10:50;;;;;;;16.13;9.55;;;6.40;99.90;;;;;;5014839;28;20049;-78
2022/10/12 06:13:16;;;;;;;17.50;9.48;;;6.30;99.90;;;;;;5003061;28;20045;-78
2022/10/12 06:15:45;;;;;;;15.05;8.82;;;6.30;99.90;;;;;;5012676;28;20156;-79
2022/10/12 06:18:12;;;;;;;18.02;9.90;;;6.30;99.90;;;;;;4994230;28;20207;-78
2022/10/12 06:20:38;;;;;;;16.90;9.97;;;6.30;99.90;;;;;;5009734;28;20037;-78
2022/10/12 06:23:07;;;;;;;15.32;9.60;;;6.30;99.90;;;;;;4989668;28;20113;-79
2022/10/12 06:25:32;;;;;;;15.35;9.50;;;6.30;99.90;;;;;;5005671;28;20100;-79
2022/10/12 06:27:58;;;;;;;12.85;9.43;;;6.30;99.90;;;;;;5010904;28;20408;-78
2022/10/12 06:30:24;;;;;;;15.98;9.50;;;6.30;99.90;;;;;;4990954;28;20057;-79
2022/10/12 06:32:49;;;;;;;16.08;9.52;;;6.30;99.90;;;;;;5009005;28;20045;-79
2022/10/12 06:35:15;;;;;;;17.05;10.27;;;6.40;99.90;;;;;;5001483;28;20042;-78
2022/10/12 06:37:51;;;;;;;15.15;9.48;;;6.40;99.90;;;;;;5014246;28;20129;-78
2022/10/12 06:40:17;;;;;;;19.13;10.07;;;6.40;99.90;;;;;;4988540;28;20472;-79
2022/10/12 06:42:43;;;;;;;19.25;10.80;;;6.40;99.90;;;;;;5015195;28;20050;-78
2022/10/12 06:45:10;;;;;;;16.13;9.13;;;6.40;99.90;;;;;;4985817;28;20045;-78
2022/10/12 06:47:36;;;;;;;17.65;10.25;;;6.40;99.90;;;;;;5001857;28;20038;-78
2022/10/12 06:50:02;;;;;;;17.55;9.88;;;6.40;99.90;;;;;;5014755;28;20038;-78
2022/10/12 06:52:28;;;;;;;18.52;9.45;;;6.40;99.90;;;;;;4996807;28;20397;-78
2022/10/12 06:54:54;;;;;;;15.35;9.27;;;6.40;99.90;;;;;;5015416;28;20050;-78
2022/10/12 06:57:19;;;;;;;15.25;9.57;;;6.50;99.90;;;;;;5014075;28;20042;-77
2022/10/12 06:59:45;;;;;;;18.13;10.02;;;6.50;99.90;;;;;;5012880;28;20481;-78
2022/10/12 07:02:11;;;;;;;22.73;10.82;;;6.60;99.90;;;;;;5013494;28;20393;-82
2022/10/12 07:04:39;;;;;;;17.40;9.73;;;6.60;99.90;;;;;;5006221;28;20481;-84
2022/10/12 07:07:05;;;;;;;17.95;10.13;;;6.60;99.90;;;;;;4997039;28;20417;-80
2022/10/12 07:09:32;;;;;;;18.13;10.25;;;6.60;99.90;;;;;;4999790;28;20043;-84
2022/10/12 07:11:58;;;;;;;19.73;10.07;;;6.70;99.90;;;;;;4998089;28;20056;-82
2022/10/12 07:14:23;;;;;;;23.05;10.55;;;6.70;99.90;;;;;;5009765;28;20396;-82
2022/10/12 07:16:50;;;;;;;20.30;9.98;;;6.80;99.90;;;;;;5003590;28;20444;-82
2022/10/12 07:19:15;;;;;;;19.77;9.93;;;6.90;99.90;;;;;;5006946;28;20038;-82
2022/10/12 07:21:41;;;;;;;17.75;9.68;;;6.80;99.90;;;;;;5008568;28;20049;-89
2022/10/12 07:24:11;;;;;;;17.55;9.63;;;7.00;99.90;;;;;;5006275;28;20084;-85
2022/10/12 07:26:36;;;;;;;17.00;9.95;;;7.00;99.90;;;;;;5002623;28;20099;-84
2022/10/12 07:29:02;;;;;;;15.65;10.25;;;7.10;99.90;;;;;;5007084;28;20046;-86
2022/10/12 07:31:28;;;;;;;18.20;9.93;;;7.20;99.90;;;;;;5008524;28;20103;-88
2022/10/12 07:33:54;;;;;;;21.77;9.88;;;7.30;99.90;;;;;;5002885;28;20509;-81
2022/10/12 07:36:19;;;;;;;18.55;9.35;;;7.30;99.90;;;;;;4992781;28;20046;-85
2022/10/12 07:38:47;;;;;;;19.92;9.40;;;7.40;99.90;;;;;;5004692;28;20037;-84
2022/10/12 07:41:13;;;;;;;;;;;7.50;99.90;;;;;;5002020;28;20038;-88
2022/10/12 07:43:39;;;;;;;19.17;9.43;;;7.60;99.90;;;;;;5004862;28;19934;-81
2022/10/12 07:46:05;;;;;;;20.00;10.43;;;7.70;99.90;;;;;;5007087;28;20046;-80
2022/10/12 07:48:32;;;;;;;17.42;10.10;;;7.80;99.90;;;;;;4983010;28;21588;-84
2022/10/12 07:51:05;;;;;;;16.60;9.13;;;7.90;99.90;;;;;;5018192;28;20126;-83
2022/10/12 07:53:33;;;;;;;20.52;9.32;;;8.00;99.90;;;;;;5025122;28;20046;-85
2022/10/12 07:56:00;;;;;;;18.25;8.70;;;8.10;99.90;;;;;;5026975;28;20041;-85
2022/10/12 07:58:26;;;;;;;;;;;8.10;99.90;;;;;;5031627;28;20104;-82
2022/10/12 08:00:52;;;;;;;16.42;8.77;;;8.20;99.90;;;;;;5030318;28;19978;-83
2022/10/12 08:03:18;;;;;;;20.70;8.77;;;8.20;99.90;;;;;;5027517;28;20041;-78
2022/10/12 08:05:44;;;;;;;16.38;9.00;;;8.20;99.90;;;;;;5030705;28;20048;-80
2022/10/12 08:08:10;;;;;;;18.00;9.50;;;8.30;99.90;;;;;;5026801;28;20041;-82
2022/10/12 08:10:35;;;;;;;20.33;9.18;;;8.40;99.90;;;;;;5012502;28;20050;-84
2022/10/12 08:13:02;;;;;;;22.35;9.25;;;8.40;99.90;;;;;;5027966;28;20041;-87
2022/10/12 08:15:28;;;;;;;17.20;9.18;;;8.40;99.90;;;;;;5020504;28;20033;-79
2022/10/12 08:17:54;;;;;;;21.52;9.18;;;8.50;99.90;;;;;;5030494;28;20240;-78
2022/10/12 08:20:19;;;;;;;17.30;9.43;;;8.60;99.90;;;;;;5006372;28;20052;-76
2022/10/12 08:22:45;;;;;;;14.85;9.18;;;8.70;99.90;;;;;;5023488;28;20754;-77
2022/10/12 08:25:11;;;;;;;16.73;9.32;;;8.90;99.90;;;;;;5030004;28;20037;-77
2022/10/12 08:27:37;;;;;;;16.55;9.02;;;9.00;99.90;;;;;;5012273;28;20044;-77
2022/10/12 08:30:07;;;;;;;18.50;9.18;;;9.10;99.90;;;;;;5029285;28;20046;-77
2022/10/12 08:32:32;;;;;;;17.95;9.60;;;9.20;99.90;;;;;;5012468;28;20459;-77
2022/10/12 08:34:58;;;;;;;18.20;8.35;;;9.30;99.90;;;;;;5028649;28;20033;-77
2022/10/12 08:37:24;;;;;;;20.63;8.88;;;9.40;99.90;;;;;;5026210;28;20048;-77
2022/10/12 08:39:50;;;;;;;20.83;9.40;;;9.50;99.90;;;;;;5026393;28;20045;-77
2022/10/12 08:42:16;;;;;;;20.60;9.18;;;9.50;99.90;;;;;;5026772;28;20045;-77
2022/10/12 08:44:47;;;;;;;24.20;9.80;;;9.60;99.90;;;;;;5012136;28;20535;-76
2022/10/12 08:47:33;;;;;;;18.67;9.30;;;9.60;99.90;;;;;;5024585;28;20254;-85
2022/10/12 08:50:01;;;;;;;18.55;9.70;;;9.70;99.90;;;;;;5023183;28;20049;-82
2022/10/12 08:52:33;;;;;;;22.15;9.20;;;9.80;99.90;;;;;;4996253;28;20133;-81
2022/10/12 08:55:35;;;;;;;18.65;9.90;;;9.90;99.90;;;;;;5019229;28;20052;-79
2022/10/12 08:58:01;;;;;;;17.95;9.07;;;9.90;99.90;;;;;;5002226;28;20053;-79
2022/10/12 09:00:29;;;;;;;23.52;10.05;;;10.00;99.90;;;;;;5010023;28;20457;-84
2022/10/12 09:03:19;;;;;;;21.73;9.02;;;10.00;99.90;;;;;;5003765;28;20050;-84
2022/10/12 09:05:55;;;;;;;20.55;9.43;;;10.10;99.90;;;;;;5003189;28;20048;-85
2022/10/12 09:08:48;;;;;;;20.52;9.20;;;10.10;99.90;;;;;;5008103;28;20525;-86
2022/10/12 09:11:56;;;;;;;18.63;9.05;;;10.20;99.90;;;;;;4990398;28;20050;-82
2022/10/12 09:14:29;;;;;;;17.15;8.63;;;10.30;99.90;;;;;;5007166;28;20073;-82
2022/10/12 09:16:56;;;;;;;16.08;8.60;;;10.30;99.90;;;;;;5010027;28;20046;-83
2022/10/12 09:19:29;;;;;;;16.45;9.02;;;10.30;99.90;;;;;;5002131;28;20172;-82
2022/10/12 09:21:56;;;;;;;18.95;9.05;;;10.40;99.90;;;;;;5006364;28;20052;-82
2022/10/12 09:24:26;;;;;;;21.25;9.63;;;10.50;99.90;;;;;;5005924;28;20041;-83
2022/10/12 09:26:57;;;;;;;19.00;8.57;;;10.50;99.90;;;;;;5005865;28;20378;-84
2022/10/12 09:29:28;;;;;;;29.25;11.13;;;10.50;99.90;;;;;;5010260;28;20042;-79
2022/10/12 09:32:03;;;;;;;28.90;10.13;;;10.60;99.90;;;;;;4987839;28;20177;-80
2022/10/12 09:34:29;;;;;;;17.48;9.65;;;10.60;99.90;;;;;;5003184;28;20042;-78
2022/10/12 09:36:54;;;;;;;17.67;8.70;;;10.70;99.90;;;;;;5000396;28;20607;-79
2022/10/12 09:39:33;;;;;;;20.23;8.90;;;10.70;99.90;;;;;;4995764;28;20053;-80
2022/10/12 09:41:59;;;;;;;17.33;8.73;;;10.80;99.90;;;;;;5008609;28;20068;-80
2022/10/12 09:44:41;;;;;;;20.35;10.32;;;10.80;99.90;;;;;;5008120;28;20490;-79
2022/10/12 09:47:28;;;;;;;16.33;9.70;;;10.80;99.90;;;;;;5011188;28;20034;-80
2022/10/12 09:49:59;;;;;;;18.45;8.98;;;10.80;99.90;;;;;;5004011;28;20564;-80
2022/10/12 09:52:30;;;;;;;17.98;9.10;;;10.80;99.90;;;;;;4985744;28;20060;-79
2022/10/12 09:55:02;;;;;;;17.70;9.05;;;10.90;99.90;;;;;;4998256;28;20042;-78
2022/10/12 09:57:39;;;;;;;19.95;9.60;;;10.90;99.90;;;;;;5005610;28;20055;-76
2022/10/12 10:00:21;;;;;;;19.30;9.43;;;11.00;99.90;;;;;;4989087;28;20503;-75
2022/10/12 10:02:49;;;;;;;17.58;8.38;;;11.00;99.90;;;;;;5008121;28;20049;-75
2022/10/12 10:05:36;;;;;;;;;;;11.10;99.90;;;;;;5009080;28;20042;-76
2022/10/12 10:08:22;;;;;;;18.75;7.60;;;11.10;99.90;;;;;;5007381;28;20508;-76
2022/10/12 10:10:56;;;;;;;16.23;7.50;;;11.20;99.90;;;;;;5006920;28;20037;-76
2022/10/12 10:13:28;;;;;;;16.70;6.57;;;11.30;99.90;;;;;;4984179;28;20433;-77
2022/10/12 10:16:09;;;;;;;20.63;6.70;;;11.40;99.90;;;;;;5000854;28;20038;-87
2022/10/12 10:18:55;;;;;;;15.00;6.35;;;11.50;99.90;;;;;;5007233;28;20037;-80
2022/10/12 10:21:39;;;;;;;15.88;6.53;;;11.60;99.90;;;;;;5006128;28;20505;-91
2022/10/12 10:24:23;;;;;;;21.10;7.43;;;11.70;99.90;;;;;;5003012;28;20054;-85
2022/10/12 10:26:54;;;;;;;16.30;6.25;;;11.80;99.90;;;;;;5006899;28;20081;-78
2022/10/12 10:29:32;;;;;;;15.73;6.03;;;11.90;99.90;;;;;;5006271;28;20045;-83
2022/10/12 10:32:15;;;;;;;24.73;10.70;;;12.00;99.90;;;;;;4981150;28;20088;-82
2022/10/12 10:35:11;;;;;;;18.95;7.50;;;12.10;99.90;;;;;;4993833;28;20088;-76
2022/10/12 10:37:57;;;;;;;16.50;6.72;;;12.10;99.90;;;;;;5001721;28;20100;-77
2022/10/12 10:40:41;;;;;;;18.52;6.70;;;12.20;99.90;;;;;;5005296;28;20033;-78
2022/10/12 10:43:30;;;;;;;15.82;6.90;;;12.30;99.90;;;;;;5005899;28;20456;-83
2022/10/12 10:46:25;;;;;;;16.05;5.95;;;12.40;99.90;;;;;;5004211;28;20092;-81
2022/10/12 10:49:05;;;;;;;15.33;8.50;;;12.40;99.90;;;;;;5007615;28;20400;-73
2022/10/12 10:51:59;;;;;;;12.68;6.20;;;12.40;99.90;;;;;;5002571;28;20316;-76
2022/10/12 10:54:30;;;;;;;12.35;4.65;;;12.50;99.90;;;;;;5005187;28;20140;-78
2022/10/12 10:57:14;;;;;;;13.40;4.65;;;12.50;99.90;;;;;;5018786;28;20046;-79
2022/10/12 10:59:49;;;;;;;12.02;5.00;;;12.60;99.90;;;;;;5004170;28;20046;-76
2022/10/12 11:02:27;;;;;;;13.32;4.68;;;12.70;99.90;;;;;;5023390;28;20046;-78
2022/10/12 11:05:13;;;;;;;12.50;4.57;;;12.70;99.90;;;;;;5021536;28;20393;-78
2022/10/12 11:07:57;;;;;;;16.17;4.85;;;12.80;99.90;;;;;;5003824;28;20968;-78
2022/10/12 11:10:31;;;;;;;12.90;4.60;;;12.90;99.90;;;;;;5022898;28;20607;-79
2022/10/12 11:13:20;;;;;;;13.13;4.82;;;12.90;99.90;;;;;;5003169;28;20041;-75
2022/10/12 11:15:57;;;;;;;15.13;5.05;;;13.00;99.90;;;;;;5021743;28;20042;-75
2022/10/12 11:18:48;;;;;;;13.10;3.88;;;13.00;99.90;;;;;;5021765;28;20084;-75
2022/10/12 11:21:19;;;;;;;13.82;4.47;;;13.10;99.90;;;;;;5004825;28;20041;-75
2022/10/12 11:23:54;;;;;;;15.43;4.45;;;13.20;99.90;;;;;;5004165;28;20136;-75
2022/10/12 11:26:29;;;;;;;10.23;4.28;;;13.10;99.90;;;;;;5019448;28;20046;-76
2022/10/12 11:28:58;;;;;;;10.43;4.28;;;13.20;99.90;;;;;;5025469;28;20095;-78
2022/10/12 11:31:38;;;;;;;14.23;4.72;;;13.30;99.90;;;;;;5008615;28;20152;-77
2022/10/12 11:34:07;;;;;;;11.70;5.63;;;13.30;99.90;;;;;;5025789;28;20204;-78
2022/10/12 11:36:39;;;;;;;12.15;4.57;;;13.40;99.90;;;;;;5029604;28;20044;-78
2022/10/12 11:39:13;;;;;;;14.13;4.55;;;13.40;99.90;;;;;;5028134;28;20164;-76
2022/10/12 11:41:50;;;;;;;12.93;4.88;;;13.50;99.90;;;;;;5028546;28;20120;-78
2022/10/12 11:44:16;;;;;;;;;;;13.50;99.90;;;;;;5028920;28;20041;-78
2022/10/12 11:46:48;;;;;;;12.98;4.40;;;13.60;99.90;;;;;;5010958;28;19970;-77
2022/10/12 11:49:48;;;;;;;18.30;5.47;;;13.60;99.90;;;;;;5006359;28;20049;-76
2022/10/12 11:52:15;;;;;;;13.82;4.50;;;13.60;99.90;;;;;;5015189;28;20132;-75
2022/10/12 11:55:04;;;;;;;13.48;4.95;;;13.70;99.90;;;;;;5024051;28;20080;-74
2022/10/12 11:57:35;;;;;;;11.30;4.90;;;13.70;99.90;;;;;;5024564;28;20128;-75
2022/10/12 12:00:06;;;;;;;14.00;5.97;;;13.80;99.90;;;;;;5028463;28;20041;-75
2022/10/12 12:02:44;;;;;;;12.70;4.40;;;13.90;99.90;;;;;;5021202;28;20359;-78
2022/10/12 12:05:14;;;;;;;11.13;4.50;;;13.90;99.90;;;;;;5022161;28;20456;-74
2022/10/12 12:07:49;;;;;;;14.02;4.90;;;13.90;99.90;;;;;;5027184;28;20420;-74
2022/10/12 12:10:29;;;;;;;14.35;4.88;;;14.00;99.90;;;;;;5007391;28;20041;-84
2022/10/12 12:13:11;;;;;;;12.20;5.13;;;14.00;99.90;;;;;;5007390;28;20085;-81
2022/10/12 12:15:57;;;;;;;14.50;4.90;;;14.00;99.90;;;;;;5011852;28;20103;-77
2022/10/12 12:18:27;;;;;;;12.73;4.75;;;14.10;99.90;;;;;;5007729;28;20054;-84
2022/10/12 12:21:05;;;;;;;10.75;4.30;;;14.10;99.90;;;;;;5026614;28;20101;-76
2022/10/12 12:23:42;;;;;;;14.52;5.28;;;14.20;99.90;;;;;;5022705;28;20132;-79
2022/10/12 12:26:10;;;;;;;9.82;4.25;;;14.20;99.90;;;;;;5026656;28;20044;-76
2022/10/12 12:28:39;;;;;;;12.25;4.93;;;14.20;99.90;;;;;;5024222;28;20635;-77
2022/10/12 12:31:25;;;;;;;12.15;4.57;;;14.20;99.90;;;;;;5020782;28;20041;-76
2022/10/12 12:34:15;;;;;;;11.70;4.67;;;14.30;99.90;;;;;;5025271;28;20099;-76
2022/10/12 12:36:43;;;;;;;14.07;5.07;;;14.30;99.90;;;;;;5010516;28;20409;-74
2022/10/12 12:39:31;;;;;;;9.68;4.50;;;14.30;99.90;;;;;;5026413;28;20064;-79
2022/10/12 12:42:06;;;;;;;16.05;5.05;;;14.40;99.90;;;;;;5027228;28;20176;-78
2022/10/12 12:44:39;;;;;;;10.93;3.85;;;14.40;99.90;;;;;;5028750;28;20045;-77
2022/10/12 12:47:10;;;;;;;12.75;4.28;;;14.40;99.90;;;;;;5025118;28;20175;-79
2022/10/12 12:49:36;;;;;;;11.90;3.90;;;14.50;99.90;;;;;;5022392;28;20489;-77
2022/10/12 12:52:10;;;;;;;10.55;3.75;;;14.60;99.90;;;;;;5008489;28;20049;-77
2022/10/12 12:54:44;;;;;;;15.13;4.53;;;14.60;99.90;;;;;;5021750;28;20056;-77
2022/10/12 12:57:34;;;;;;;12.25;4.10;;;14.70;99.90;;;;;;5026845;28;20173;-78
2022/10/12 13:00:05;;;;;;;12.02;4.05;;;14.70;99.90;;;;;;4999675;28;20409;-80
2022/10/12 13:02:44;;;;;;;14.95;5.28;;;14.70;99.90;;;;;;5027916;28;20547;-78
2022/10/12 13:05:28;;;;;;;13.55;4.07;;;14.80;99.90;;;;;;5007386;28;20611;-80